Carson City, Michigan
Current Conditions -  °F | °C
As of 5:11 AM on Friday 31 Oct 2014 (Local Time) from KAMN Reporting Station
Light Rain Light Rain  
Wind Chill: 37°   Ceiling: 2800
Heat Index: 42°   Visibility: 7mi
Dew Point: 39°   Wind: 7mph
Humidity: 90%   Direction: 310°NW
Pressure: 29.91"   Gusts: NA
Location:  43.18°N, 84.85°W
Report Text: KAMN 310911Z AUTO 31006KT 7SM -RA SCT011 BKN028 OVC036 06/04 A2991 RMK AO2 T00550040
Loading
Personal Weather Stations






























Interactive Weather Map New forecast layout! Learn more

10-Day Weather Forecast

Advertisements
Track Severe Weather on mobile